sensor_id;sensor_type;location;lat;lon;timestamp;P1;durP1;ratioP1;P2;durP2;ratioP2
63008;SDS011;49099;28.428;-16.488;2023-07-08T00:01:13;2.70;;;2.00;;
63008;SDS011;49099;28.428;-16.488;2023-07-08T00:03:42;5.28;;;2.42;;
63008;SDS011;49099;28.428;-16.488;2023-07-08T00:06:16;4.93;;;2.30;;
63008;SDS011;49099;28.428;-16.488;2023-07-08T00:08:47;5.00;;;2.60;;
63008;SDS011;49099;28.428;-16.488;2023-07-08T00:11:14;4.53;;;2.40;;
63008;SDS011;49099;28.428;-16.488;2023-07-08T00:13:43;3.65;;;2.20;;
63008;SDS011;49099;28.428;-16.488;2023-07-08T00:16:12;3.75;;;2.13;;
63008;SDS011;49099;28.428;-16.488;2023-07-08T00:18:41;4.78;;;2.13;;
63008;SDS011;49099;28.428;-16.488;2023-07-08T00:21:12;3.92;;;2.20;;
63008;SDS011;49099;28.428;-16.488;2023-07-08T00:23:44;5.22;;;2.28;;
63008;SDS011;49099;28.428;-16.488;2023-07-08T00:26:19;4.18;;;1.90;;
63008;SDS011;49099;28.428;-16.488;2023-07-08T00:28:50;2.78;;;1.75;;
63008;SDS011;49099;28.428;-16.488;2023-07-08T00:31:18;4.63;;;2.00;;
63008;SDS011;49099;28.428;-16.488;2023-07-08T00:33:53;3.33;;;1.93;;
63008;SDS011;49099;28.428;-16.488;2023-07-08T00:36:24;4.05;;;2.15;;
63008;SDS011;49099;28.428;-16.488;2023-07-08T00:38:53;5.20;;;1.92;;
63008;SDS011;49099;28.428;-16.488;2023-07-08T00:44:01;4.65;;;2.08;;
63008;SDS011;49099;28.428;-16.488;2023-07-08T00:51:29;2.90;;;1.95;;
63008;SDS011;49099;28.428;-16.488;2023-07-08T00:53:56;3.80;;;2.05;;
63008;SDS011;49099;28.428;-16.488;2023-07-08T00:59:01;4.78;;;2.60;;
63008;SDS011;49099;28.428;-16.488;2023-07-08T01:01:32;3.70;;;1.92;;
63008;SDS011;49099;28.428;-16.488;2023-07-08T01:07:02;5.53;;;2.20;;
63008;SDS011;49099;28.428;-16.488;2023-07-08T01:09:32;3.72;;;2.10;;
63008;SDS011;49099;28.428;-16.488;2023-07-08T01:14:34;3.75;;;2.10;;
63008;SDS011;49099;28.428;-16.488;2023-07-08T01:17:05;4.38;;;1.98;;
63008;SDS011;49099;28.428;-16.488;2023-07-08T01:19:32;3.05;;;1.95;;
63008;SDS011;49099;28.428;-16.488;2023-07-08T01:22:04;5.68;;;2.20;;
63008;SDS011;49099;28.428;-16.488;2023-07-08T01:24:37;3.33;;;2.05;;
63008;SDS011;49099;28.428;-16.488;2023-07-08T01:27:08;3.53;;;1.80;;
63008;SDS011;49099;28.428;-16.488;2023-07-08T01:29:39;3.65;;;2.08;;
63008;SDS011;49099;28.428;-16.488;2023-07-08T01:32:09;4.65;;;2.20;;
63008;SDS011;49099;28.428;-16.488;2023-07-08T01:34:40;3.75;;;2.22;;
63008;SDS011;49099;28.428;-16.488;2023-07-08T01:37:09;3.35;;;2.08;;
63008;SDS011;49099;28.428;-16.488;2023-07-08T01:39:38;4.03;;;2.75;;
63008;SDS011;49099;28.428;-16.488;2023-07-08T01:42:05;4.40;;;2.13;;
63008;SDS011;49099;28.428;-16.488;2023-07-08T01:44:34;2.97;;;2.05;;
63008;SDS011;49099;28.428;-16.488;2023-07-08T01:49:42;4.03;;;1.90;;
63008;SDS011;49099;28.428;-16.488;2023-07-08T01:52:12;5.47;;;2.42;;
63008;SDS011;49099;28.428;-16.488;2023-07-08T01:54:42;4.07;;;2.10;;
63008;SDS011;49099;28.428;-16.488;2023-07-08T01:57:09;2.35;;;1.90;;
63008;SDS011;49099;28.428;-16.488;2023-07-08T01:59:36;3.55;;;1.83;;
63008;SDS011;49099;28.428;-16.488;2023-07-08T02:02:03;5.10;;;2.10;;
63008;SDS011;49099;28.428;-16.488;2023-07-08T02:04:31;6.63;;;2.50;;
63008;SDS011;49099;28.428;-16.488;2023-07-08T02:06:58;4.35;;;2.05;;
63008;SDS011;49099;28.428;-16.488;2023-07-08T02:09:26;3.90;;;2.20;;
63008;SDS011;49099;28.428;-16.488;2023-07-08T02:11:54;4.40;;;2.03;;
63008;SDS011;49099;28.428;-16.488;2023-07-08T02:14:22;3.40;;;2.13;;
63008;SDS011;49099;28.428;-16.488;2023-07-08T02:16:49;3.97;;;2.15;;
63008;SDS011;49099;28.428;-16.488;2023-07-08T02:19:17;5.13;;;2.38;;
63008;SDS011;49099;28.428;-16.488;2023-07-08T02:21:44;3.42;;;2.28;;
63008;SDS011;49099;28.428;-16.488;2023-07-08T02:24:12;4.95;;;2.22;;
63008;SDS011;49099;28.428;-16.488;2023-07-08T02:26:39;5.03;;;1.90;;
63008;SDS011;49099;28.428;-16.488;2023-07-08T02:29:06;3.95;;;2.08;;
63008;SDS011;49099;28.428;-16.488;2023-07-08T02:31:33;5.55;;;2.40;;
63008;SDS011;49099;28.428;-16.488;2023-07-08T02:34:00;3.35;;;2.13;;
63008;SDS011;49099;28.428;-16.488;2023-07-08T02:36:30;3.92;;;2.05;;
63008;SDS011;49099;28.428;-16.488;2023-07-08T02:38:57;3.90;;;2.08;;
63008;SDS011;49099;28.428;-16.488;2023-07-08T02:41:25;3.58;;;1.95;;
63008;SDS011;49099;28.428;-16.488;2023-07-08T02:43:52;4.45;;;2.05;;
63008;SDS011;49099;28.428;-16.488;2023-07-08T02:46:19;5.30;;;2.03;;
63008;SDS011;49099;28.428;-16.488;2023-07-08T02:48:46;3.60;;;2.03;;
63008;SDS011;49099;28.428;-16.488;2023-07-08T02:51:13;4.50;;;1.80;;
63008;SDS011;49099;28.428;-16.488;2023-07-08T02:53:41;3.35;;;1.80;;
63008;SDS011;49099;28.428;-16.488;2023-07-08T02:56:08;6.35;;;2.00;;
63008;SDS011;49099;28.428;-16.488;2023-07-08T02:58:35;3.75;;;2.10;;
63008;SDS011;49099;28.428;-16.488;2023-07-08T03:01:02;4.03;;;1.88;;
63008;SDS011;49099;28.428;-16.488;2023-07-08T03:03:30;3.40;;;2.00;;
63008;SDS011;49099;28.428;-16.488;2023-07-08T03:05:58;4.07;;;2.13;;
63008;SDS011;49099;28.428;-16.488;2023-07-08T03:08:29;4.55;;;2.08;;
63008;SDS011;49099;28.428;-16.488;2023-07-08T03:10:58;4.93;;;1.55;;
63008;SDS011;49099;28.428;-16.488;2023-07-08T03:13:27;3.47;;;1.88;;
63008;SDS011;49099;28.428;-16.488;2023-07-08T03:15:56;4.75;;;2.20;;
63008;SDS011;49099;28.428;-16.488;2023-07-08T03:18:25;3.22;;;1.65;;
63008;SDS011;49099;28.428;-16.488;2023-07-08T03:20:56;4.07;;;1.90;;
63008;SDS011;49099;28.428;-16.488;2023-07-08T03:23:25;3.45;;;1.73;;
63008;SDS011;49099;28.428;-16.488;2023-07-08T03:25:52;2.30;;;1.70;;
63008;SDS011;49099;28.428;-16.488;2023-07-08T03:28:20;5.05;;;1.77;;
63008;SDS011;49099;28.428;-16.488;2023-07-08T03:30:51;4.55;;;2.03;;
63008;SDS011;49099;28.428;-16.488;2023-07-08T03:33:19;2.63;;;1.77;;
63008;SDS011;49099;28.428;-16.488;2023-07-08T03:35:47;3.80;;;2.00;;
63008;SDS011;49099;28.428;-16.488;2023-07-08T03:38:14;3.75;;;1.85;;
63008;SDS011;49099;28.428;-16.488;2023-07-08T03:40:42;3.67;;;1.65;;
63008;SDS011;49099;28.428;-16.488;2023-07-08T03:43:09;3.38;;;1.90;;
63008;SDS011;49099;28.428;-16.488;2023-07-08T03:45:36;3.30;;;2.00;;
63008;SDS011;49099;28.428;-16.488;2023-07-08T03:48:03;3.75;;;2.05;;
63008;SDS011;49099;28.428;-16.488;2023-07-08T03:50:31;4.55;;;2.25;;
63008;SDS011;49099;28.428;-16.488;2023-07-08T03:52:58;3.95;;;1.85;;
63008;SDS011;49099;28.428;-16.488;2023-07-08T03:55:26;3.92;;;2.00;;
63008;SDS011;49099;28.428;-16.488;2023-07-08T03:57:54;4.78;;;2.00;;
63008;SDS011;49099;28.428;-16.488;2023-07-08T04:00:22;3.63;;;2.00;;
63008;SDS011;49099;28.428;-16.488;2023-07-08T04:02:49;4.50;;;2.13;;
63008;SDS011;49099;28.428;-16.488;2023-07-08T04:05:17;4.95;;;2.00;;
63008;SDS011;49099;28.428;-16.488;2023-07-08T04:07:46;2.88;;;1.80;;
63008;SDS011;49099;28.428;-16.488;2023-07-08T04:10:14;4.65;;;2.13;;
63008;SDS011;49099;28.428;-16.488;2023-07-08T04:12:43;3.50;;;2.00;;
63008;SDS011;49099;28.428;-16.488;2023-07-08T04:15:10;3.60;;;1.80;;
63008;SDS011;49099;28.428;-16.488;2023-07-08T04:17:45;4.05;;;2.05;;
63008;SDS011;49099;28.428;-16.488;2023-07-08T04:20:16;4.95;;;1.80;;
63008;SDS011;49099;28.428;-16.488;2023-07-08T04:22:45;2.95;;;1.67;;
63008;SDS011;49099;28.428;-16.488;2023-07-08T04:25:13;4.90;;;2.20;;
63008;SDS011;49099;28.428;-16.488;2023-07-08T04:27:41;3.85;;;2.20;;
63008;SDS011;49099;28.428;-16.488;2023-07-08T04:30:14;3.80;;;2.00;;
63008;SDS011;49099;28.428;-16.488;2023-07-08T04:32:49;5.05;;;2.22;;
63008;SDS011;49099;28.428;-16.488;2023-07-08T04:35:17;5.97;;;1.90;;
63008;SDS011;49099;28.428;-16.488;2023-07-08T04:37:44;5.90;;;2.20;;
63008;SDS011;49099;28.428;-16.488;2023-07-08T04:40:16;4.45;;;2.13;;
63008;SDS011;49099;28.428;-16.488;2023-07-08T04:42:45;4.13;;;2.10;;
63008;SDS011;49099;28.428;-16.488;2023-07-08T04:45:16;4.25;;;2.20;;
63008;SDS011;49099;28.428;-16.488;2023-07-08T04:47:44;5.35;;;2.10;;
63008;SDS011;49099;28.428;-16.488;2023-07-08T04:50:13;5.18;;;2.20;;
63008;SDS011;49099;28.428;-16.488;2023-07-08T04:52:40;4.10;;;1.90;;
63008;SDS011;49099;28.428;-16.488;2023-07-08T04:55:08;5.90;;;2.10;;
63008;SDS011;49099;28.428;-16.488;2023-07-08T04:57:36;3.15;;;2.00;;
63008;SDS011;49099;28.428;-16.488;2023-07-08T05:00:04;3.50;;;2.10;;
63008;SDS011;49099;28.428;-16.488;2023-07-08T05:02:35;4.32;;;2.40;;
63008;SDS011;49099;28.428;-16.488;2023-07-08T05:05:02;4.45;;;2.33;;
63008;SDS011;49099;28.428;-16.488;2023-07-08T05:07:29;6.10;;;2.42;;
63008;SDS011;49099;28.428;-16.488;2023-07-08T05:09:57;4.45;;;2.08;;
63008;SDS011;49099;28.428;-16.488;2023-07-08T05:12:25;3.65;;;2.40;;
63008;SDS011;49099;28.428;-16.488;2023-07-08T05:14:53;4.20;;;2.00;;
63008;SDS011;49099;28.428;-16.488;2023-07-08T05:17:20;3.15;;;1.83;;
63008;SDS011;49099;28.428;-16.488;2023-07-08T05:19:48;2.85;;;1.80;;
63008;SDS011;49099;28.428;-16.488;2023-07-08T05:22:17;6.32;;;2.47;;
63008;SDS011;49099;28.428;-16.488;2023-07-08T05:24:45;3.40;;;2.00;;
63008;SDS011;49099;28.428;-16.488;2023-07-08T05:27:13;6.88;;;2.10;;
63008;SDS011;49099;28.428;-16.488;2023-07-08T05:29:41;5.45;;;2.17;;
63008;SDS011;49099;28.428;-16.488;2023-07-08T05:32:09;5.13;;;1.95;;
63008;SDS011;49099;28.428;-16.488;2023-07-08T05:34:37;3.88;;;2.35;;
63008;SDS011;49099;28.428;-16.488;2023-07-08T05:37:04;3.03;;;1.90;;
63008;SDS011;49099;28.428;-16.488;2023-07-08T05:39:31;4.28;;;2.13;;
63008;SDS011;49099;28.428;-16.488;2023-07-08T05:41:59;4.47;;;1.77;;
63008;SDS011;49099;28.428;-16.488;2023-07-08T05:44:26;3.28;;;1.92;;
63008;SDS011;49099;28.428;-16.488;2023-07-08T05:46:53;4.03;;;2.10;;
63008;SDS011;49099;28.428;-16.488;2023-07-08T05:49:20;4.78;;;1.95;;
63008;SDS011;49099;28.428;-16.488;2023-07-08T05:51:47;3.65;;;1.83;;
63008;SDS011;49099;28.428;-16.488;2023-07-08T05:54:15;3.33;;;2.17;;
63008;SDS011;49099;28.428;-16.488;2023-07-08T05:56:42;4.45;;;1.80;;
63008;SDS011;49099;28.428;-16.488;2023-07-08T05:59:09;3.67;;;1.88;;
63008;SDS011;49099;28.428;-16.488;2023-07-08T06:01:38;4.03;;;1.80;;
63008;SDS011;49099;28.428;-16.488;2023-07-08T06:04:05;3.80;;;2.10;;
63008;SDS011;49099;28.428;-16.488;2023-07-08T06:06:32;4.43;;;1.95;;
63008;SDS011;49099;28.428;-16.488;2023-07-08T06:08:59;5.72;;;2.00;;
63008;SDS011;49099;28.428;-16.488;2023-07-08T06:11:26;4.45;;;2.00;;
63008;SDS011;49099;28.428;-16.488;2023-07-08T06:13:57;2.70;;;2.00;;
63008;SDS011;49099;28.428;-16.488;2023-07-08T06:16:24;4.03;;;1.75;;
63008;SDS011;49099;28.428;-16.488;2023-07-08T06:19:06;2.28;;;1.60;;
63008;SDS011;49099;28.428;-16.488;2023-07-08T06:21:33;2.78;;;1.90;;
63008;SDS011;49099;28.428;-16.488;2023-07-08T06:24:01;3.28;;;1.92;;
63008;SDS011;49099;28.428;-16.488;2023-07-08T06:26:28;3.53;;;1.73;;
63008;SDS011;49099;28.428;-16.488;2023-07-08T06:28:55;3.83;;;2.00;;
63008;SDS011;49099;28.428;-16.488;2023-07-08T06:31:22;5.05;;;1.90;;
63008;SDS011;49099;28.428;-16.488;2023-07-08T06:33:50;3.63;;;1.90;;
63008;SDS011;49099;28.428;-16.488;2023-07-08T06:36:17;6.65;;;2.10;;
63008;SDS011;49099;28.428;-16.488;2023-07-08T06:38:44;8.00;;;2.15;;
63008;SDS011;49099;28.428;-16.488;2023-07-08T06:41:11;5.07;;;2.00;;
63008;SDS011;49099;28.428;-16.488;2023-07-08T06:43:38;6.63;;;2.35;;
63008;SDS011;49099;28.428;-16.488;2023-07-08T06:46:06;6.28;;;1.85;;
63008;SDS011;49099;28.428;-16.488;2023-07-08T06:48:33;3.20;;;1.50;;
63008;SDS011;49099;28.428;-16.488;2023-07-08T06:51:00;4.82;;;1.80;;
63008;SDS011;49099;28.428;-16.488;2023-07-08T06:53:28;3.30;;;1.88;;
63008;SDS011;49099;28.428;-16.488;2023-07-08T06:55:55;5.90;;;1.73;;
63008;SDS011;49099;28.428;-16.488;2023-07-08T06:58:22;4.65;;;1.73;;
63008;SDS011;49099;28.428;-16.488;2023-07-08T07:00:49;3.17;;;1.90;;
63008;SDS011;49099;28.428;-16.488;2023-07-08T07:03:17;3.80;;;1.90;;
63008;SDS011;49099;28.428;-16.488;2023-07-08T07:05:44;2.80;;;1.70;;
63008;SDS011;49099;28.428;-16.488;2023-07-08T07:08:11;4.07;;;2.00;;
63008;SDS011;49099;28.428;-16.488;2023-07-08T07:10:39;2.30;;;1.67;;
63008;SDS011;49099;28.428;-16.488;2023-07-08T07:13:06;4.13;;;2.13;;
63008;SDS011;49099;28.428;-16.488;2023-07-08T07:15:33;3.63;;;1.98;;
63008;SDS011;49099;28.428;-16.488;2023-07-08T07:18:00;4.72;;;1.77;;
63008;SDS011;49099;28.428;-16.488;2023-07-08T07:20:28;6.22;;;2.00;;
63008;SDS011;49099;28.428;-16.488;2023-07-08T07:22:55;7.78;;;2.00;;
63008;SDS011;49099;28.428;-16.488;2023-07-08T07:25:23;6.13;;;1.90;;
63008;SDS011;49099;28.428;-16.488;2023-07-08T07:27:50;3.90;;;2.00;;
63008;SDS011;49099;28.428;-16.488;2023-07-08T07:30:17;5.45;;;1.90;;
63008;SDS011;49099;28.428;-16.488;2023-07-08T07:32:45;4.30;;;1.75;;
63008;SDS011;49099;28.428;-16.488;2023-07-08T07:35:12;3.72;;;1.75;;
63008;SDS011;49099;28.428;-16.488;2023-07-08T07:37:42;4.10;;;1.88;;
63008;SDS011;49099;28.428;-16.488;2023-07-08T07:40:09;5.20;;;1.80;;
63008;SDS011;49099;28.428;-16.488;2023-07-08T07:42:39;4.35;;;1.77;;
63008;SDS011;49099;28.428;-16.488;2023-07-08T07:45:08;2.47;;;1.60;;
63008;SDS011;49099;28.428;-16.488;2023-07-08T07:47:36;3.72;;;1.58;;
63008;SDS011;49099;28.428;-16.488;2023-07-08T07:50:04;4.03;;;1.77;;
63008;SDS011;49099;28.428;-16.488;2023-07-08T07:52:33;3.47;;;1.70;;
63008;SDS011;49099;28.428;-16.488;2023-07-08T07:55:01;4.40;;;2.05;;
63008;SDS011;49099;28.428;-16.488;2023-07-08T07:57:28;5.40;;;1.88;;
63008;SDS011;49099;28.428;-16.488;2023-07-08T07:59:56;4.13;;;1.80;;
63008;SDS011;49099;28.428;-16.488;2023-07-08T08:02:23;4.13;;;1.80;;
63008;SDS011;49099;28.428;-16.488;2023-07-08T08:04:50;3.95;;;1.80;;
63008;SDS011;49099;28.428;-16.488;2023-07-08T08:07:17;5.43;;;2.00;;
63008;SDS011;49099;28.428;-16.488;2023-07-08T08:09:44;8.40;;;2.20;;
63008;SDS011;49099;28.428;-16.488;2023-07-08T08:12:12;3.03;;;1.83;;
63008;SDS011;49099;28.428;-16.488;2023-07-08T08:14:39;4.45;;;2.00;;
63008;SDS011;49099;28.428;-16.488;2023-07-08T08:17:06;2.78;;;1.85;;
63008;SDS011;49099;28.428;-16.488;2023-07-08T08:19:33;6.00;;;2.00;;
63008;SDS011;49099;28.428;-16.488;2023-07-08T08:22:00;3.20;;;1.90;;
63008;SDS011;49099;28.428;-16.488;2023-07-08T08:24:28;4.22;;;1.98;;
63008;SDS011;49099;28.428;-16.488;2023-07-08T08:26:55;3.90;;;1.90;;
63008;SDS011;49099;28.428;-16.488;2023-07-08T08:29:22;5.03;;;2.00;;
63008;SDS011;49099;28.428;-16.488;2023-07-08T08:31:49;5.50;;;2.10;;
63008;SDS011;49099;28.428;-16.488;2023-07-08T08:34:17;2.97;;;1.90;;
63008;SDS011;49099;28.428;-16.488;2023-07-08T08:36:44;7.05;;;1.98;;
63008;SDS011;49099;28.428;-16.488;2023-07-08T08:39:12;6.80;;;1.90;;
63008;SDS011;49099;28.428;-16.488;2023-07-08T08:41:40;3.83;;;1.75;;
63008;SDS011;49099;28.428;-16.488;2023-07-08T08:44:12;6.60;;;2.10;;
63008;SDS011;49099;28.428;-16.488;2023-07-08T08:52:04;4.57;;;2.30;;
63008;SDS011;49099;28.428;-16.488;2023-07-08T08:54:32;3.55;;;2.10;;
63008;SDS011;49099;28.428;-16.488;2023-07-08T08:59:57;7.75;;;2.28;;
63008;SDS011;49099;28.428;-16.488;2023-07-08T09:05:08;4.22;;;2.10;;
63008;SDS011;49099;28.428;-16.488;2023-07-08T09:07:54;10.07;;;2.57;;
63008;SDS011;49099;28.428;-16.488;2023-07-08T09:13:21;10.75;;;2.50;;
63008;SDS011;49099;28.428;-16.488;2023-07-08T09:15:59;6.57;;;2.50;;
63008;SDS011;49099;28.428;-16.488;2023-07-08T09:18:34;4.13;;;2.10;;
63008;SDS011;49099;28.428;-16.488;2023-07-08T09:21:24;4.72;;;2.40;;
63008;SDS011;49099;28.428;-16.488;2023-07-08T09:23:55;5.05;;;2.40;;
63008;SDS011;49099;28.428;-16.488;2023-07-08T09:26:27;6.70;;;2.20;;
63008;SDS011;49099;28.428;-16.488;2023-07-08T09:28:56;4.22;;;2.15;;
63008;SDS011;49099;28.428;-16.488;2023-07-08T09:31:25;4.88;;;2.47;;
63008;SDS011;49099;28.428;-16.488;2023-07-08T09:34:14;3.30;;;2.20;;
63008;SDS011;49099;28.428;-16.488;2023-07-08T09:36:47;4.55;;;2.35;;
63008;SDS011;49099;28.428;-16.488;2023-07-08T09:39:16;4.78;;;2.35;;
63008;SDS011;49099;28.428;-16.488;2023-07-08T09:41:48;6.03;;;2.30;;
63008;SDS011;49099;28.428;-16.488;2023-07-08T09:46:55;3.78;;;2.50;;
63008;SDS011;49099;28.428;-16.488;2023-07-08T09:49:26;5.65;;;2.40;;
63008;SDS011;49099;28.428;-16.488;2023-07-08T09:52:02;4.57;;;2.50;;
63008;SDS011;49099;28.428;-16.488;2023-07-08T09:54:31;4.82;;;2.55;;
63008;SDS011;49099;28.428;-16.488;2023-07-08T09:57:04;5.72;;;2.88;;
63008;SDS011;49099;28.428;-16.488;2023-07-08T09:59:54;3.57;;;2.60;;
63008;SDS011;49099;28.428;-16.488;2023-07-08T10:02:27;4.88;;;2.80;;
63008;SDS011;49099;28.428;-16.488;2023-07-08T10:05:24;9.40;;;2.70;;
63008;SDS011;49099;28.428;-16.488;2023-07-08T10:07:56;3.97;;;2.80;;
63008;SDS011;49099;28.428;-16.488;2023-07-08T10:10:57;5.22;;;2.40;;
63008;SDS011;49099;28.428;-16.488;2023-07-08T10:13:43;5.07;;;2.30;;
63008;SDS011;49099;28.428;-16.488;2023-07-08T10:16:29;5.70;;;2.60;;
63008;SDS011;49099;28.428;-16.488;2023-07-08T10:18:59;6.05;;;2.80;;
63008;SDS011;49099;28.428;-16.488;2023-07-08T10:35:49;4.38;;;2.10;;
63008;SDS011;49099;28.428;-16.488;2023-07-08T10:41:14;3.95;;;2.10;;
63008;SDS011;49099;28.428;-16.488;2023-07-08T10:58:59;6.38;;;2.40;;
63008;SDS011;49099;28.428;-16.488;2023-07-08T11:03:59;6.57;;;2.40;;
63008;SDS011;49099;28.428;-16.488;2023-07-08T11:09:26;4.75;;;2.40;;
63008;SDS011;49099;28.428;-16.488;2023-07-08T11:12:28;3.05;;;2.25;;
63008;SDS011;49099;28.428;-16.488;2023-07-08T11:17:51;4.35;;;2.40;;
63008;SDS011;49099;28.428;-16.488;2023-07-08T11:20:39;3.58;;;2.22;;
63008;SDS011;49099;28.428;-16.488;2023-07-08T11:23:32;3.45;;;2.33;;
63008;SDS011;49099;28.428;-16.488;2023-07-08T11:26:28;5.10;;;2.33;;
63008;SDS011;49099;28.428;-16.488;2023-07-08T11:28:59;6.30;;;2.40;;
63008;SDS011;49099;28.428;-16.488;2023-07-08T11:31:29;3.58;;;2.50;;
63008;SDS011;49099;28.428;-16.488;2023-07-08T11:33:59;2.78;;;2.00;;
63008;SDS011;49099;28.428;-16.488;2023-07-08T11:36:28;6.70;;;2.90;;
63008;SDS011;49099;28.428;-16.488;2023-07-08T11:38:57;3.58;;;2.30;;
63008;SDS011;49099;28.428;-16.488;2023-07-08T11:41:26;5.13;;;2.40;;
63008;SDS011;49099;28.428;-16.488;2023-07-08T11:43:58;5.70;;;2.60;;
63008;SDS011;49099;28.428;-16.488;2023-07-08T11:46:30;9.57;;;3.10;;
63008;SDS011;49099;28.428;-16.488;2023-07-08T11:49:05;3.97;;;2.47;;
63008;SDS011;49099;28.428;-16.488;2023-07-08T11:51:40;2.78;;;2.42;;
63008;SDS011;49099;28.428;-16.488;2023-07-08T11:54:11;8.20;;;2.80;;
63008;SDS011;49099;28.428;-16.488;2023-07-08T11:59:37;3.35;;;2.25;;
63008;SDS011;49099;28.428;-16.488;2023-07-08T12:02:12;5.05;;;2.17;;
63008;SDS011;49099;28.428;-16.488;2023-07-08T12:04:55;5.78;;;2.70;;
63008;SDS011;49099;28.428;-16.488;2023-07-08T12:07:33;6.13;;;2.60;;
63008;SDS011;49099;28.428;-16.488;2023-07-08T12:12:45;3.63;;;2.30;;
63008;SDS011;49099;28.428;-16.488;2023-07-08T12:15:29;3.85;;;2.40;;
63008;SDS011;49099;28.428;-16.488;2023-07-08T12:18:03;3.22;;;2.03;;
63008;SDS011;49099;28.428;-16.488;2023-07-08T12:21:02;4.13;;;2.30;;
63008;SDS011;49099;28.428;-16.488;2023-07-08T12:23:30;5.30;;;2.58;;
63008;SDS011;49099;28.428;-16.488;2023-07-08T12:25:57;5.47;;;2.40;;
63008;SDS011;49099;28.428;-16.488;2023-07-08T12:28:24;6.78;;;2.58;;
63008;SDS011;49099;28.428;-16.488;2023-07-08T12:30:57;4.35;;;2.60;;
63008;SDS011;49099;28.428;-16.488;2023-07-08T12:35:59;8.70;;;5.00;;
63008;SDS011;49099;28.428;-16.488;2023-07-08T12:38:39;8.35;;;5.20;;
63008;SDS011;49099;28.428;-16.488;2023-07-08T12:41:13;5.18;;;2.55;;
63008;SDS011;49099;28.428;-16.488;2023-07-08T12:43:41;4.18;;;3.00;;
63008;SDS011;49099;28.428;-16.488;2023-07-08T12:46:09;7.03;;;3.63;;
63008;SDS011;49099;28.428;-16.488;2023-07-08T12:48:38;7.28;;;3.20;;
63008;SDS011;49099;28.428;-16.488;2023-07-08T12:51:12;4.47;;;3.20;;
63008;SDS011;49099;28.428;-16.488;2023-07-08T12:54:08;5.53;;;3.50;;
63008;SDS011;49099;28.428;-16.488;2023-07-08T12:56:36;4.32;;;3.22;;
63008;SDS011;49099;28.428;-16.488;2023-07-08T12:59:04;5.88;;;3.40;;
63008;SDS011;49099;28.428;-16.488;2023-07-08T13:01:33;5.28;;;3.00;;
63008;SDS011;49099;28.428;-16.488;2023-07-08T13:04:03;6.43;;;3.83;;
63008;SDS011;49099;28.428;-16.488;2023-07-08T13:06:37;5.63;;;3.33;;
63008;SDS011;49099;28.428;-16.488;2023-07-08T13:11:56;4.65;;;2.70;;
63008;SDS011;49099;28.428;-16.488;2023-07-08T13:14:24;4.95;;;2.90;;
63008;SDS011;49099;28.428;-16.488;2023-07-08T13:16:52;5.43;;;3.00;;
63008;SDS011;49099;28.428;-16.488;2023-07-08T13:19:21;5.95;;;3.10;;
63008;SDS011;49099;28.428;-16.488;2023-07-08T13:21:49;5.38;;;3.00;;
63008;SDS011;49099;28.428;-16.488;2023-07-08T13:24:17;6.95;;;3.38;;
63008;SDS011;49099;28.428;-16.488;2023-07-08T13:26:46;3.20;;;2.42;;
63008;SDS011;49099;28.428;-16.488;2023-07-08T13:29:16;3.63;;;2.47;;
63008;SDS011;49099;28.428;-16.488;2023-07-08T13:31:49;7.40;;;3.20;;
63008;SDS011;49099;28.428;-16.488;2023-07-08T13:34:22;5.40;;;3.00;;
63008;SDS011;49099;28.428;-16.488;2023-07-08T13:36:51;3.70;;;2.55;;
63008;SDS011;49099;28.428;-16.488;2023-07-08T13:39:28;7.00;;;2.60;;
63008;SDS011;49099;28.428;-16.488;2023-07-08T13:41:59;5.65;;;2.90;;
63008;SDS011;49099;28.428;-16.488;2023-07-08T13:44:27;5.68;;;2.85;;
63008;SDS011;49099;28.428;-16.488;2023-07-08T13:46:56;4.45;;;2.75;;
63008;SDS011;49099;28.428;-16.488;2023-07-08T13:49:29;6.22;;;3.03;;
63008;SDS011;49099;28.428;-16.488;2023-07-08T13:52:07;4.55;;;2.88;;
63008;SDS011;49099;28.428;-16.488;2023-07-08T13:54:40;5.47;;;2.95;;
63008;SDS011;49099;28.428;-16.488;2023-07-08T13:57:11;3.88;;;2.60;;
63008;SDS011;49099;28.428;-16.488;2023-07-08T13:59:43;5.63;;;3.20;;
63008;SDS011;49099;28.428;-16.488;2023-07-08T14:02:18;2.75;;;2.40;;
63008;SDS011;49099;28.428;-16.488;2023-07-08T14:04:48;7.18;;;2.88;;
63008;SDS011;49099;28.428;-16.488;2023-07-08T14:07:17;4.07;;;2.80;;
63008;SDS011;49099;28.428;-16.488;2023-07-08T14:09:47;4.20;;;2.38;;
63008;SDS011;49099;28.428;-16.488;2023-07-08T14:12:14;4.57;;;2.67;;
63008;SDS011;49099;28.428;-16.488;2023-07-08T14:14:41;4.32;;;2.88;;
63008;SDS011;49099;28.428;-16.488;2023-07-08T14:17:12;3.60;;;2.60;;
63008;SDS011;49099;28.428;-16.488;2023-07-08T14:19:46;4.45;;;2.65;;
63008;SDS011;49099;28.428;-16.488;2023-07-08T14:24:40;5.07;;;2.85;;
63008;SDS011;49099;28.428;-16.488;2023-07-08T14:27:08;6.18;;;2.65;;
63008;SDS011;49099;28.428;-16.488;2023-07-08T14:29:41;5.13;;;2.97;;
63008;SDS011;49099;28.428;-16.488;2023-07-08T14:32:41;3.70;;;2.55;;
63008;SDS011;49099;28.428;-16.488;2023-07-08T14:35:23;4.43;;;2.35;;
63008;SDS011;49099;28.428;-16.488;2023-07-08T14:37:50;3.42;;;2.53;;
63008;SDS011;49099;28.428;-16.488;2023-07-08T14:40:41;6.63;;;2.75;;
63008;SDS011;49099;28.428;-16.488;2023-07-08T14:43:18;5.50;;;2.55;;
63008;SDS011;49099;28.428;-16.488;2023-07-08T14:45:50;6.70;;;3.00;;
63008;SDS011;49099;28.428;-16.488;2023-07-08T14:48:20;4.65;;;2.72;;
63008;SDS011;49099;28.428;-16.488;2023-07-08T14:50:47;4.80;;;2.60;;
63008;SDS011;49099;28.428;-16.488;2023-07-08T14:53:15;4.53;;;2.70;;
63008;SDS011;49099;28.428;-16.488;2023-07-08T14:55:43;4.03;;;2.53;;
63008;SDS011;49099;28.428;-16.488;2023-07-08T14:58:23;5.13;;;2.90;;
63008;SDS011;49099;28.428;-16.488;2023-07-08T15:00:57;4.10;;;2.50;;
63008;SDS011;49099;28.428;-16.488;2023-07-08T15:05:54;4.30;;;2.95;;
63008;SDS011;49099;28.428;-16.488;2023-07-08T15:08:21;4.50;;;2.83;;
63008;SDS011;49099;28.428;-16.488;2023-07-08T15:10:50;5.38;;;2.88;;
63008;SDS011;49099;28.428;-16.488;2023-07-08T15:13:19;5.18;;;2.97;;
63008;SDS011;49099;28.428;-16.488;2023-07-08T15:15:52;4.43;;;2.45;;
63008;SDS011;49099;28.428;-16.488;2023-07-08T15:18:20;6.30;;;2.80;;
63008;SDS011;49099;28.428;-16.488;2023-07-08T15:20:47;4.68;;;2.78;;
63008;SDS011;49099;28.428;-16.488;2023-07-08T15:23:14;3.83;;;2.67;;
63008;SDS011;49099;28.428;-16.488;2023-07-08T15:25:42;5.95;;;2.88;;
63008;SDS011;49099;28.428;-16.488;2023-07-08T15:28:18;3.97;;;2.70;;
63008;SDS011;49099;28.428;-16.488;2023-07-08T15:30:48;7.07;;;3.00;;
63008;SDS011;49099;28.428;-16.488;2023-07-08T15:33:16;6.88;;;3.00;;
63008;SDS011;49099;28.428;-16.488;2023-07-08T15:35:43;5.22;;;2.78;;
63008;SDS011;49099;28.428;-16.488;2023-07-08T15:38:11;4.85;;;3.15;;
63008;SDS011;49099;28.428;-16.488;2023-07-08T15:40:38;3.78;;;2.60;;
63008;SDS011;49099;28.428;-16.488;2023-07-08T15:43:08;4.93;;;3.13;;
63008;SDS011;49099;28.428;-16.488;2023-07-08T15:45:40;3.85;;;2.55;;
63008;SDS011;49099;28.428;-16.488;2023-07-08T15:48:14;3.72;;;2.70;;
63008;SDS011;49099;28.428;-16.488;2023-07-08T15:50:43;5.18;;;2.88;;
63008;SDS011;49099;28.428;-16.488;2023-07-08T15:53:10;4.10;;;2.88;;
63008;SDS011;49099;28.428;-16.488;2023-07-08T15:55:40;4.57;;;3.00;;
63008;SDS011;49099;28.428;-16.488;2023-07-08T15:58:27;4.00;;;2.80;;
63008;SDS011;49099;28.428;-16.488;2023-07-08T16:00:58;3.20;;;2.72;;
63008;SDS011;49099;28.428;-16.488;2023-07-08T16:03:29;3.75;;;2.65;;
63008;SDS011;49099;28.428;-16.488;2023-07-08T16:05:58;3.47;;;2.70;;
63008;SDS011;49099;28.428;-16.488;2023-07-08T16:08:26;3.63;;;2.60;;
63008;SDS011;49099;28.428;-16.488;2023-07-08T16:10:56;3.45;;;2.60;;